Fdl, Wisconsin
Current Conditions -  °F | °C
As of 5:53 AM on Wednesday 28 Jan 2015 (Local Time) from KFLD Reporting Station
Overcast Overcast  
Wind Chill: 16°   Ceiling: 2200
Heat Index: 22°   Visibility: 10mi
Dew Point: 16°   Wind: 5mph
Humidity: 78%   Direction: 200°SSW
Pressure: 30.23"   Gusts: NA
Location:  43.7436°N, 88.3886°W
Report Text: KFLD 281153Z AUTO 20004KT 10SM OVC022 M06/M09 A3023 RMK AO2 SLP249 T10561089 11050 21072 55003
Loading
Personal Weather Stations






























Interactive Weather Map New forecast layout! Learn more

10-Day Weather Forecast

Advertisements
Track Severe Weather on mobile